Terminal Aerodrome Forecast
Issued by NWS

Home | Current Version | Previous Version | Text Only | Print | Product List | Glossary On
Versions: 1 2 3 4 5 6 7 8 9 10 11 12
000
FTUS44 KSJT 281126 CCA
TAFBBD
TAF COR
KBBD 281126Z 2812/2912 17011KT P6SM BKN015
     FM281500 22010KT P6SM SCT250
     FM282300 16010KT P6SM BKN250
      AMD NOT SKED=

USA.gov is the U.S. government's official web portal to all federal, state and local government web resources and services.